Huvudsida
METAR-TAF:

METAR-TAF

Flygplatser :

Mandalay International Airport

Mandalay, Burma

latitud: 21-59N, longitud: 096-06E, höjd: 74 m

Aktuellt väderrapport

Denna rapport gjordes för 1 timme och 2 minuter sedan, klockan 10:30 UTC
Vind 5 kt från syd
Temperatur 34°C
Fuktighet 26%
Tryck 1008 hPa
Sikt: 7000 m
Spridda moln på en höjd av 2000 ft

METAR: VYMD 251030Z 18005KT 7000 SCT020 34/12 Q1008 NOSIG

Tid: 18:02 (11:32 UTC)

Väderprognos

Denna rapport gjordes för 6 timmar och 32 minuter sedan, klockan 05:00 UTC
Prognos gäller från 25 kl. 06 UTC till 26 kl. 06 UTC
Vind 5 kt från väst/nordväst
Sikt: 7000 m
Spridda moln på en höjd av 12000 ft
Temporärt
från 25 kl. 06 UTC till 25 kl. 12 UTC
Vind 7 kt från nordväst
Sikt: 7000 m
Spridda moln på en höjd av 12000 ft

TAF: VYMD 250500Z 2506/2606 29005KT 7000 SCT120 TEMPO 2506/2512 32007KT 7000 SCT120

Aktuella väderrapporter och prognoser från 4000 flygplatser (METAR- och TAF-rapporter).

De tillgängliga stationerna syns som gula och röda prickar på kartan.

För musen över prickarna för att se namnen på stationerna.

Klicka sedan för att få väderrapporter och prognoser.

För att ändra kartan: Klicka på de gröna knapparna med ett svart kors på för att zooma in; den gröna knappen med ett streck på för att zooma ut; eller på de gröna pilarna för angränsande kartor.


METAR-TAF: